sensor_id;sensor_type;location;lat;lon;timestamp;P1;durP1;ratioP1;P2;durP2;ratioP2
6007;SDS011;3032;49.484;11.112;2023-05-10T00:01:55;6.10;;;5.60;;
6007;SDS011;3032;49.484;11.112;2023-05-10T00:04:21;8.60;;;7.33;;
6007;SDS011;3032;49.484;11.112;2023-05-10T00:06:46;8.90;;;6.87;;
6007;SDS011;3032;49.484;11.112;2023-05-10T00:09:12;7.43;;;6.57;;
6007;SDS011;3032;49.484;11.112;2023-05-10T00:11:38;7.45;;;6.85;;
6007;SDS011;3032;49.484;11.112;2023-05-10T00:14:04;6.83;;;6.33;;
6007;SDS011;3032;49.484;11.112;2023-05-10T00:16:29;8.77;;;6.60;;
6007;SDS011;3032;49.484;11.112;2023-05-10T00:18:55;9.30;;;8.50;;
6007;SDS011;3032;49.484;11.112;2023-05-10T00:21:20;9.20;;;8.30;;
6007;SDS011;3032;49.484;11.112;2023-05-10T00:23:46;8.00;;;7.30;;
6007;SDS011;3032;49.484;11.112;2023-05-10T00:26:11;12.13;;;8.37;;
6007;SDS011;3032;49.484;11.112;2023-05-10T00:28:37;9.77;;;8.40;;
6007;SDS011;3032;49.484;11.112;2023-05-10T00:31:03;8.80;;;7.97;;
6007;SDS011;3032;49.484;11.112;2023-05-10T00:33:28;8.90;;;8.10;;
6007;SDS011;3032;49.484;11.112;2023-05-10T00:35:54;13.23;;;9.23;;
6007;SDS011;3032;49.484;11.112;2023-05-10T00:38:19;9.90;;;9.00;;
6007;SDS011;3032;49.484;11.112;2023-05-10T00:40:45;11.43;;;10.37;;
6007;SDS011;3032;49.484;11.112;2023-05-10T00:43:11;12.00;;;9.07;;
6007;SDS011;3032;49.484;11.112;2023-05-10T00:45:36;9.40;;;8.53;;
6007;SDS011;3032;49.484;11.112;2023-05-10T00:48:03;11.63;;;10.40;;
6007;SDS011;3032;49.484;11.112;2023-05-10T00:50:30;12.50;;;11.02;;
6007;SDS011;3032;49.484;11.112;2023-05-10T00:52:57;10.23;;;9.18;;
6007;SDS011;3032;49.484;11.112;2023-05-10T00:55:24;11.05;;;10.02;;
6007;SDS011;3032;49.484;11.112;2023-05-10T00:57:49;10.53;;;9.57;;
6007;SDS011;3032;49.484;11.112;2023-05-10T01:00:15;14.93;;;10.13;;
6007;SDS011;3032;49.484;11.112;2023-05-10T01:02:43;10.70;;;9.68;;
6007;SDS011;3032;49.484;11.112;2023-05-10T01:05:10;14.48;;;10.35;;
6007;SDS011;3032;49.484;11.112;2023-05-10T01:07:36;14.20;;;10.80;;
6007;SDS011;3032;49.484;11.112;2023-05-10T01:10:01;11.57;;;10.37;;
6007;SDS011;3032;49.484;11.112;2023-05-10T01:12:27;11.73;;;10.50;;
6007;SDS011;3032;49.484;11.112;2023-05-10T01:14:53;13.33;;;10.67;;
6007;SDS011;3032;49.484;11.112;2023-05-10T01:17:19;11.15;;;10.05;;
6007;SDS011;3032;49.484;11.112;2023-05-10T01:19:47;11.07;;;10.05;;
6007;SDS011;3032;49.484;11.112;2023-05-10T01:30:48;12.60;;;11.40;;
6007;SDS011;3032;49.484;11.112;2023-05-10T01:33:41;14.15;;;11.60;;
6007;SDS011;3032;49.484;11.112;2023-05-10T01:36:19;12.60;;;11.40;;
6007;SDS011;3032;49.484;11.112;2023-05-10T01:38:51;14.32;;;12.35;;
6007;SDS011;3032;49.484;11.112;2023-05-10T01:42:10;14.07;;;12.00;;
6007;SDS011;3032;49.484;11.112;2023-05-10T01:44:20;17.48;;;12.30;;
6007;SDS011;3032;49.484;11.112;2023-05-10T01:47:17;14.15;;;12.77;;
6007;SDS011;3032;49.484;11.112;2023-05-10T01:50:02;14.20;;;12.77;;
6007;SDS011;3032;49.484;11.112;2023-05-10T01:52:33;16.48;;;13.77;;
6007;SDS011;3032;49.484;11.112;2023-05-10T01:55:08;18.77;;;14.02;;
6007;SDS011;3032;49.484;11.112;2023-05-10T01:57:36;14.63;;;12.95;;
6007;SDS011;3032;49.484;11.112;2023-05-10T02:00:04;14.63;;;13.10;;
6007;SDS011;3032;49.484;11.112;2023-05-10T02:02:33;14.82;;;13.10;;
6007;SDS011;3032;49.484;11.112;2023-05-10T02:05:02;15.57;;;13.15;;
6007;SDS011;3032;49.484;11.112;2023-05-10T02:07:32;15.75;;;13.45;;
6007;SDS011;3032;49.484;11.112;2023-05-10T02:10:01;14.35;;;12.52;;
6007;SDS011;3032;49.484;11.112;2023-05-10T02:12:29;16.73;;;13.85;;
6007;SDS011;3032;49.484;11.112;2023-05-10T02:14:56;16.45;;;13.63;;
6007;SDS011;3032;49.484;11.112;2023-05-10T02:17:24;15.10;;;13.48;;
6007;SDS011;3032;49.484;11.112;2023-05-10T02:19:50;22.33;;;15.55;;
6007;SDS011;3032;49.484;11.112;2023-05-10T02:22:17;16.45;;;13.82;;
6007;SDS011;3032;49.484;11.112;2023-05-10T02:24:43;18.83;;;13.85;;
6007;SDS011;3032;49.484;11.112;2023-05-10T02:27:10;20.52;;;16.85;;
6007;SDS011;3032;49.484;11.112;2023-05-10T02:29:37;22.63;;;16.17;;
6007;SDS011;3032;49.484;11.112;2023-05-10T02:32:03;19.98;;;16.33;;
6007;SDS011;3032;49.484;11.112;2023-05-10T02:34:31;23.48;;;17.35;;
6007;SDS011;3032;49.484;11.112;2023-05-10T02:36:57;19.90;;;15.07;;
6007;SDS011;3032;49.484;11.112;2023-05-10T02:39:24;19.65;;;16.27;;
6007;SDS011;3032;49.484;11.112;2023-05-10T02:41:51;17.13;;;14.18;;
6007;SDS011;3032;49.484;11.112;2023-05-10T02:44:18;23.13;;;17.23;;
6007;SDS011;3032;49.484;11.112;2023-05-10T02:46:45;30.88;;;19.52;;
6007;SDS011;3032;49.484;11.112;2023-05-10T02:49:11;23.38;;;18.25;;
6007;SDS011;3032;49.484;11.112;2023-05-10T02:51:39;21.10;;;17.50;;
6007;SDS011;3032;49.484;11.112;2023-05-10T02:54:12;25.67;;;18.55;;
6007;SDS011;3032;49.484;11.112;2023-05-10T02:56:45;8.38;;;7.57;;
6007;SDS011;3032;49.484;11.112;2023-05-10T02:59:15;6.93;;;6.32;;
6007;SDS011;3032;49.484;11.112;2023-05-10T03:01:41;6.60;;;6.00;;
6007;SDS011;3032;49.484;11.112;2023-05-10T03:04:07;6.00;;;5.50;;
6007;SDS011;3032;49.484;11.112;2023-05-10T03:06:32;6.50;;;5.80;;
6007;SDS011;3032;49.484;11.112;2023-05-10T03:08:58;6.77;;;6.13;;
6007;SDS011;3032;49.484;11.112;2023-05-10T03:19:53;3.58;;;3.28;;
6007;SDS011;3032;49.484;11.112;2023-05-10T03:22:26;3.05;;;2.63;;
6007;SDS011;3032;49.484;11.112;2023-05-10T03:24:59;2.88;;;2.70;;
6007;SDS011;3032;49.484;11.112;2023-05-10T03:27:29;2.88;;;2.67;;
6007;SDS011;3032;49.484;11.112;2023-05-10T03:29:57;3.10;;;2.95;;
6007;SDS011;3032;49.484;11.112;2023-05-10T03:32:23;3.05;;;2.92;;
6007;SDS011;3032;49.484;11.112;2023-05-10T03:34:49;3.90;;;3.30;;
6007;SDS011;3032;49.484;11.112;2023-05-10T03:37:14;2.63;;;2.40;;
6007;SDS011;3032;49.484;11.112;2023-05-10T03:39:40;2.60;;;2.40;;
6007;SDS011;3032;49.484;11.112;2023-05-10T03:42:06;4.50;;;3.43;;
6007;SDS011;3032;49.484;11.112;2023-05-10T03:44:31;2.23;;;2.13;;
6007;SDS011;3032;49.484;11.112;2023-05-10T03:46:58;2.10;;;2.00;;
6007;SDS011;3032;49.484;11.112;2023-05-10T03:49:24;2.23;;;2.00;;
6007;SDS011;3032;49.484;11.112;2023-05-10T03:51:49;1.87;;;1.77;;
6007;SDS011;3032;49.484;11.112;2023-05-10T03:54:15;2.37;;;2.27;;
6007;SDS011;3032;49.484;11.112;2023-05-10T03:56:40;2.40;;;2.30;;
6007;SDS011;3032;49.484;11.112;2023-05-10T03:59:06;1.83;;;1.73;;
6007;SDS011;3032;49.484;11.112;2023-05-10T04:01:33;1.63;;;1.52;;
6007;SDS011;3032;49.484;11.112;2023-05-10T04:03:59;2.40;;;2.00;;
6007;SDS011;3032;49.484;11.112;2023-05-10T04:06:24;2.27;;;2.17;;
6007;SDS011;3032;49.484;11.112;2023-05-10T04:08:50;1.90;;;1.70;;
6007;SDS011;3032;49.484;11.112;2023-05-10T04:11:15;1.60;;;1.50;;
6007;SDS011;3032;49.484;11.112;2023-05-10T04:13:41;2.80;;;1.60;;
6007;SDS011;3032;49.484;11.112;2023-05-10T04:16:07;2.35;;;2.20;;
6007;SDS011;3032;49.484;11.112;2023-05-10T04:18:33;1.60;;;1.50;;
6007;SDS011;3032;49.484;11.112;2023-05-10T04:20:59;2.60;;;1.50;;
6007;SDS011;3032;49.484;11.112;2023-05-10T04:23:25;1.40;;;1.40;;
6007;SDS011;3032;49.484;11.112;2023-05-10T04:25:52;3.63;;;1.67;;
6007;SDS011;3032;49.484;11.112;2023-05-10T04:28:17;1.77;;;1.67;;
6007;SDS011;3032;49.484;11.112;2023-05-10T04:30:43;1.97;;;1.80;;
6007;SDS011;3032;49.484;11.112;2023-05-10T04:33:08;1.77;;;1.67;;
6007;SDS011;3032;49.484;11.112;2023-05-10T04:35:34;5.73;;;1.80;;
6007;SDS011;3032;49.484;11.112;2023-05-10T04:38:00;1.70;;;1.20;;
6007;SDS011;3032;49.484;11.112;2023-05-10T04:40:25;1.57;;;1.47;;
6007;SDS011;3032;49.484;11.112;2023-05-10T04:42:51;1.57;;;1.53;;
6007;SDS011;3032;49.484;11.112;2023-05-10T04:45:17;1.13;;;1.13;;
6007;SDS011;3032;49.484;11.112;2023-05-10T04:47:42;1.37;;;1.37;;
6007;SDS011;3032;49.484;11.112;2023-05-10T04:50:08;1.73;;;1.30;;
6007;SDS011;3032;49.484;11.112;2023-05-10T04:52:33;1.60;;;1.50;;
6007;SDS011;3032;49.484;11.112;2023-05-10T04:54:59;2.93;;;1.50;;
6007;SDS011;3032;49.484;11.112;2023-05-10T04:57:24;1.20;;;1.10;;
6007;SDS011;3032;49.484;11.112;2023-05-10T04:59:50;4.90;;;1.50;;
6007;SDS011;3032;49.484;11.112;2023-05-10T05:02:16;1.30;;;1.20;;
6007;SDS011;3032;49.484;11.112;2023-05-10T05:04:41;1.20;;;1.20;;
6007;SDS011;3032;49.484;11.112;2023-05-10T05:07:07;1.47;;;1.37;;
6007;SDS011;3032;49.484;11.112;2023-05-10T05:09:32;2.30;;;1.60;;
6007;SDS011;3032;49.484;11.112;2023-05-10T05:11:58;1.57;;;1.47;;
6007;SDS011;3032;49.484;11.112;2023-05-10T05:14:24;1.65;;;1.55;;
6007;SDS011;3032;49.484;11.112;2023-05-10T05:16:52;1.40;;;1.40;;
6007;SDS011;3032;49.484;11.112;2023-05-10T05:19:18;1.20;;;1.20;;
6007;SDS011;3032;49.484;11.112;2023-05-10T05:21:43;1.50;;;1.40;;
6007;SDS011;3032;49.484;11.112;2023-05-10T05:24:09;1.33;;;1.30;;
6007;SDS011;3032;49.484;11.112;2023-05-10T05:26:36;1.30;;;1.20;;
6007;SDS011;3032;49.484;11.112;2023-05-10T05:29:01;1.30;;;1.20;;
6007;SDS011;3032;49.484;11.112;2023-05-10T05:31:27;1.58;;;1.40;;
6007;SDS011;3032;49.484;11.112;2023-05-10T05:33:53;1.00;;;1.00;;
6007;SDS011;3032;49.484;11.112;2023-05-10T05:36:19;1.70;;;1.60;;
6007;SDS011;3032;49.484;11.112;2023-05-10T05:41:31;2.05;;;1.67;;
6007;SDS011;3032;49.484;11.112;2023-05-10T05:43:57;1.50;;;1.50;;
6007;SDS011;3032;49.484;11.112;2023-05-10T05:46:22;2.10;;;1.27;;
6007;SDS011;3032;49.484;11.112;2023-05-10T05:48:48;3.23;;;1.17;;
6007;SDS011;3032;49.484;11.112;2023-05-10T05:51:13;1.87;;;1.77;;
6007;SDS011;3032;49.484;11.112;2023-05-10T05:53:39;1.33;;;1.33;;
6007;SDS011;3032;49.484;11.112;2023-05-10T05:56:04;1.80;;;1.70;;
6007;SDS011;3032;49.484;11.112;2023-05-10T05:58:30;1.60;;;1.60;;
6007;SDS011;3032;49.484;11.112;2023-05-10T06:00:56;1.67;;;1.67;;
6007;SDS011;3032;49.484;11.112;2023-05-10T06:03:22;2.60;;;1.52;;
6007;SDS011;3032;49.484;11.112;2023-05-10T06:05:47;2.40;;;1.73;;
6007;SDS011;3032;49.484;11.112;2023-05-10T06:08:13;1.33;;;1.33;;
6007;SDS011;3032;49.484;11.112;2023-05-10T06:10:38;1.87;;;1.77;;
6007;SDS011;3032;49.484;11.112;2023-05-10T06:13:04;2.10;;;1.30;;
6007;SDS011;3032;49.484;11.112;2023-05-10T06:15:30;2.20;;;2.10;;
6007;SDS011;3032;49.484;11.112;2023-05-10T06:17:55;2.00;;;1.90;;
6007;SDS011;3032;49.484;11.112;2023-05-10T06:20:21;2.23;;;2.03;;
6007;SDS011;3032;49.484;11.112;2023-05-10T06:22:46;1.90;;;1.80;;
6007;SDS011;3032;49.484;11.112;2023-05-10T06:25:12;2.40;;;2.20;;
6007;SDS011;3032;49.484;11.112;2023-05-10T06:27:39;1.83;;;1.83;;
6007;SDS011;3032;49.484;11.112;2023-05-10T06:30:04;1.93;;;1.83;;
6007;SDS011;3032;49.484;11.112;2023-05-10T06:32:31;2.80;;;2.50;;
6007;SDS011;3032;49.484;11.112;2023-05-10T06:34:56;2.10;;;1.73;;
6007;SDS011;3032;49.484;11.112;2023-05-10T06:37:22;2.27;;;2.17;;
6007;SDS011;3032;49.484;11.112;2023-05-10T06:39:47;1.80;;;1.70;;
6007;SDS011;3032;49.484;11.112;2023-05-10T06:42:13;4.00;;;2.07;;
6007;SDS011;3032;49.484;11.112;2023-05-10T06:44:39;2.00;;;1.90;;
6007;SDS011;3032;49.484;11.112;2023-05-10T06:47:04;1.70;;;1.60;;
6007;SDS011;3032;49.484;11.112;2023-05-10T06:49:30;1.77;;;1.63;;
6007;SDS011;3032;49.484;11.112;2023-05-10T06:51:56;2.27;;;2.03;;
6007;SDS011;3032;49.484;11.112;2023-05-10T06:54:21;2.23;;;2.03;;
6007;SDS011;3032;49.484;11.112;2023-05-10T06:56:48;3.03;;;2.33;;
6007;SDS011;3032;49.484;11.112;2023-05-10T06:59:13;3.53;;;2.40;;
6007;SDS011;3032;49.484;11.112;2023-05-10T07:01:40;2.15;;;2.05;;
6007;SDS011;3032;49.484;11.112;2023-05-10T07:04:05;1.80;;;1.60;;
6007;SDS011;3032;49.484;11.112;2023-05-10T07:06:32;1.90;;;1.80;;
6007;SDS011;3032;49.484;11.112;2023-05-10T07:08:58;2.55;;;1.90;;
6007;SDS011;3032;49.484;11.112;2023-05-10T07:11:24;1.67;;;1.50;;
6007;SDS011;3032;49.484;11.112;2023-05-10T07:13:49;2.13;;;1.70;;
6007;SDS011;3032;49.484;11.112;2023-05-10T07:16:15;2.70;;;1.83;;
6007;SDS011;3032;49.484;11.112;2023-05-10T07:18:40;1.40;;;1.30;;
6007;SDS011;3032;49.484;11.112;2023-05-10T07:21:06;1.67;;;1.30;;
6007;SDS011;3032;49.484;11.112;2023-05-10T07:23:31;1.70;;;1.70;;
6007;SDS011;3032;49.484;11.112;2023-05-10T07:25:57;1.80;;;1.70;;
6007;SDS011;3032;49.484;11.112;2023-05-10T07:28:23;1.87;;;1.40;;
6007;SDS011;3032;49.484;11.112;2023-05-10T07:30:51;1.60;;;1.50;;
6007;SDS011;3032;49.484;11.112;2023-05-10T07:33:17;1.73;;;1.27;;
6007;SDS011;3032;49.484;11.112;2023-05-10T07:35:42;2.20;;;1.30;;
6007;SDS011;3032;49.484;11.112;2023-05-10T07:38:08;0.90;;;0.90;;
6007;SDS011;3032;49.484;11.112;2023-05-10T07:40:35;1.20;;;1.20;;
6007;SDS011;3032;49.484;11.112;2023-05-10T07:43:01;1.00;;;1.00;;
6007;SDS011;3032;49.484;11.112;2023-05-10T07:45:27;1.10;;;1.10;;
6007;SDS011;3032;49.484;11.112;2023-05-10T07:47:53;1.40;;;1.30;;
6007;SDS011;3032;49.484;11.112;2023-05-10T07:50:19;1.13;;;1.13;;
6007;SDS011;3032;49.484;11.112;2023-05-10T07:52:46;1.92;;;1.70;;
6007;SDS011;3032;49.484;11.112;2023-05-10T07:55:11;1.73;;;1.53;;
6007;SDS011;3032;49.484;11.112;2023-05-10T07:57:37;2.10;;;1.70;;
6007;SDS011;3032;49.484;11.112;2023-05-10T08:00:03;1.70;;;1.60;;
6007;SDS011;3032;49.484;11.112;2023-05-10T08:02:29;2.05;;;1.40;;
6007;SDS011;3032;49.484;11.112;2023-05-10T08:04:55;2.10;;;1.90;;
6007;SDS011;3032;49.484;11.112;2023-05-10T08:07:20;1.20;;;1.20;;
6007;SDS011;3032;49.484;11.112;2023-05-10T08:09:46;1.80;;;1.70;;
6007;SDS011;3032;49.484;11.112;2023-05-10T08:12:12;1.63;;;1.63;;
6007;SDS011;3032;49.484;11.112;2023-05-10T08:14:37;1.30;;;1.30;;
6007;SDS011;3032;49.484;11.112;2023-05-10T08:17:03;2.10;;;2.00;;
6007;SDS011;3032;49.484;11.112;2023-05-10T08:19:29;2.30;;;2.20;;
6007;SDS011;3032;49.484;11.112;2023-05-10T08:21:54;1.93;;;1.47;;
6007;SDS011;3032;49.484;11.112;2023-05-10T08:24:23;2.67;;;2.00;;
6007;SDS011;3032;49.484;11.112;2023-05-10T08:26:48;1.67;;;1.57;;
6007;SDS011;3032;49.484;11.112;2023-05-10T08:29:14;3.70;;;2.40;;
6007;SDS011;3032;49.484;11.112;2023-05-10T08:34:52;1.92;;;1.83;;
6007;SDS011;3032;49.484;11.112;2023-05-10T08:37:18;2.23;;;1.70;;
6007;SDS011;3032;49.484;11.112;2023-05-10T08:39:43;2.00;;;1.50;;
6007;SDS011;3032;49.484;11.112;2023-05-10T08:42:10;1.83;;;1.30;;
6007;SDS011;3032;49.484;11.112;2023-05-10T08:44:37;2.13;;;1.70;;
6007;SDS011;3032;49.484;11.112;2023-05-10T08:47:04;2.50;;;1.93;;
6007;SDS011;3032;49.484;11.112;2023-05-10T08:49:31;2.67;;;1.20;;
6007;SDS011;3032;49.484;11.112;2023-05-10T08:51:58;1.58;;;1.45;;
6007;SDS011;3032;49.484;11.112;2023-05-10T08:54:28;1.30;;;1.30;;
6007;SDS011;3032;49.484;11.112;2023-05-10T08:56:56;1.05;;;1.05;;
6007;SDS011;3032;49.484;11.112;2023-05-10T08:59:22;4.30;;;1.43;;
6007;SDS011;3032;49.484;11.112;2023-05-10T09:01:47;1.48;;;1.42;;
6007;SDS011;3032;49.484;11.112;2023-05-10T09:04:16;1.88;;;1.25;;
6007;SDS011;3032;49.484;11.112;2023-05-10T09:06:41;1.40;;;1.40;;
6007;SDS011;3032;49.484;11.112;2023-05-10T09:09:07;1.77;;;1.57;;
6007;SDS011;3032;49.484;11.112;2023-05-10T09:11:32;1.73;;;1.37;;
6007;SDS011;3032;49.484;11.112;2023-05-10T09:13:58;8.97;;;1.60;;
6007;SDS011;3032;49.484;11.112;2023-05-10T09:16:24;1.77;;;1.67;;
6007;SDS011;3032;49.484;11.112;2023-05-10T09:18:50;2.17;;;1.97;;
6007;SDS011;3032;49.484;11.112;2023-05-10T09:21:15;3.03;;;2.00;;
6007;SDS011;3032;49.484;11.112;2023-05-10T09:23:44;2.53;;;2.33;;
6007;SDS011;3032;49.484;11.112;2023-05-10T09:26:11;2.78;;;2.58;;
6007;SDS011;3032;49.484;11.112;2023-05-10T09:28:57;2.83;;;2.63;;
6007;SDS011;3032;49.484;11.112;2023-05-10T09:31:24;4.55;;;3.00;;
6007;SDS011;3032;49.484;11.112;2023-05-10T09:33:51;3.17;;;2.88;;
6007;SDS011;3032;49.484;11.112;2023-05-10T09:36:17;3.10;;;2.90;;
6007;SDS011;3032;49.484;11.112;2023-05-10T09:38:49;3.90;;;3.50;;
6007;SDS011;3032;49.484;11.112;2023-05-10T09:41:18;4.63;;;4.20;;
6007;SDS011;3032;49.484;11.112;2023-05-10T09:43:46;5.22;;;4.82;;
6007;SDS011;3032;49.484;11.112;2023-05-10T09:46:12;8.38;;;4.47;;
6007;SDS011;3032;49.484;11.112;2023-05-10T09:48:40;6.70;;;5.33;;
6007;SDS011;3032;49.484;11.112;2023-05-10T09:51:07;5.30;;;4.80;;
6007;SDS011;3032;49.484;11.112;2023-05-10T09:53:33;4.07;;;3.50;;
6007;SDS011;3032;49.484;11.112;2023-05-10T09:55:58;4.67;;;4.37;;
6007;SDS011;3032;49.484;11.112;2023-05-10T09:58:24;3.53;;;3.23;;
6007;SDS011;3032;49.484;11.112;2023-05-10T10:00:50;5.23;;;4.00;;
6007;SDS011;3032;49.484;11.112;2023-05-10T10:03:18;4.50;;;4.18;;
6007;SDS011;3032;49.484;11.112;2023-05-10T10:05:45;4.18;;;3.83;;
6007;SDS011;3032;49.484;11.112;2023-05-10T10:08:13;5.47;;;3.42;;
6007;SDS011;3032;49.484;11.112;2023-05-10T10:10:39;3.65;;;3.28;;
6007;SDS011;3032;49.484;11.112;2023-05-10T10:13:05;2.85;;;2.65;;
6007;SDS011;3032;49.484;11.112;2023-05-10T10:15:32;2.63;;;2.42;;
6007;SDS011;3032;49.484;11.112;2023-05-10T10:17:59;5.68;;;2.78;;
6007;SDS011;3032;49.484;11.112;2023-05-10T10:20:25;2.22;;;2.03;;
6007;SDS011;3032;49.484;11.112;2023-05-10T10:22:51;2.25;;;1.80;;
6007;SDS011;3032;49.484;11.112;2023-05-10T10:25:17;3.63;;;1.87;;
6007;SDS011;3032;49.484;11.112;2023-05-10T10:33:24;1.55;;;1.40;;
6007;SDS011;3032;49.484;11.112;2023-05-10T10:36:16;3.53;;;1.30;;
6007;SDS011;3032;49.484;11.112;2023-05-10T10:41:34;2.78;;;1.40;;
6007;SDS011;3032;49.484;11.112;2023-05-10T10:49:43;1.38;;;1.27;;
6007;SDS011;3032;49.484;11.112;2023-05-10T10:55:07;4.80;;;1.80;;
6007;SDS011;3032;49.484;11.112;2023-05-10T11:00:24;1.35;;;1.35;;
6007;SDS011;3032;49.484;11.112;2023-05-10T11:05:34;1.85;;;1.42;;
6007;SDS011;3032;49.484;11.112;2023-05-10T11:08:12;1.52;;;1.42;;
6007;SDS011;3032;49.484;11.112;2023-05-10T11:13:30;1.73;;;1.20;;
6007;SDS011;3032;49.484;11.112;2023-05-10T11:15:55;2.75;;;2.03;;
6007;SDS011;3032;49.484;11.112;2023-05-10T11:20:57;2.30;;;2.10;;
6007;SDS011;3032;49.484;11.112;2023-05-10T11:26:10;2.45;;;2.35;;
6007;SDS011;3032;49.484;11.112;2023-05-10T11:28:46;2.58;;;2.38;;
6007;SDS011;3032;49.484;11.112;2023-05-10T11:31:13;2.65;;;2.45;;
6007;SDS011;3032;49.484;11.112;2023-05-10T11:33:43;2.38;;;2.20;;
6007;SDS011;3032;49.484;11.112;2023-05-10T11:36:14;3.78;;;2.55;;
6007;SDS011;3032;49.484;11.112;2023-05-10T11:38:40;7.22;;;2.45;;
6007;SDS011;3032;49.484;11.112;2023-05-10T11:41:07;2.80;;;2.60;;
6007;SDS011;3032;49.484;11.112;2023-05-10T11:43:34;2.30;;;2.20;;
6007;SDS011;3032;49.484;11.112;2023-05-10T11:46:02;2.10;;;1.95;;
6007;SDS011;3032;49.484;11.112;2023-05-10T11:48:29;2.80;;;1.97;;
6007;SDS011;3032;49.484;11.112;2023-05-10T11:50:55;2.03;;;1.85;;
6007;SDS011;3032;49.484;11.112;2023-05-10T11:53:22;2.22;;;1.40;;
6007;SDS011;3032;49.484;11.112;2023-05-10T11:55:47;1.43;;;1.33;;
6007;SDS011;3032;49.484;11.112;2023-05-10T11:58:13;2.00;;;1.83;;
6007;SDS011;3032;49.484;11.112;2023-05-10T12:00:39;3.63;;;1.50;;
6007;SDS011;3032;49.484;11.112;2023-05-10T12:03:05;5.67;;;1.50;;
6007;SDS011;3032;49.484;11.112;2023-05-10T12:05:33;1.50;;;1.40;;
6007;SDS011;3032;49.484;11.112;2023-05-10T12:08:13;3.45;;;1.33;;
6007;SDS011;3032;49.484;11.112;2023-05-10T12:10:40;1.50;;;1.40;;
6007;SDS011;3032;49.484;11.112;2023-05-10T12:13:05;1.63;;;1.50;;
6007;SDS011;3032;49.484;11.112;2023-05-10T12:15:36;1.80;;;1.70;;
6007;SDS011;3032;49.484;11.112;2023-05-10T12:18:02;3.57;;;1.73;;
6007;SDS011;3032;49.484;11.112;2023-05-10T12:20:28;4.87;;;1.63;;
6007;SDS011;3032;49.484;11.112;2023-05-10T12:22:55;2.70;;;1.55;;
6007;SDS011;3032;49.484;11.112;2023-05-10T12:25:23;13.48;;;1.90;;
6007;SDS011;3032;49.484;11.112;2023-05-10T12:27:54;1.55;;;1.48;;
6007;SDS011;3032;49.484;11.112;2023-05-10T12:30:27;2.17;;;1.77;;
6007;SDS011;3032;49.484;11.112;2023-05-10T12:32:59;1.90;;;1.73;;
6007;SDS011;3032;49.484;11.112;2023-05-10T12:35:25;1.35;;;1.35;;
6007;SDS011;3032;49.484;11.112;2023-05-10T12:37:51;1.73;;;1.63;;
6007;SDS011;3032;49.484;11.112;2023-05-10T12:40:16;2.60;;;1.20;;
6007;SDS011;3032;49.484;11.112;2023-05-10T12:42:42;1.33;;;1.20;;
6007;SDS011;3032;49.484;11.112;2023-05-10T12:45:09;1.35;;;1.25;;
6007;SDS011;3032;49.484;11.112;2023-05-10T12:47:35;1.20;;;1.20;;
6007;SDS011;3032;49.484;11.112;2023-05-10T12:50:02;1.20;;;1.10;;
6007;SDS011;3032;49.484;11.112;2023-05-10T12:52:28;1.50;;;1.40;;
6007;SDS011;3032;49.484;11.112;2023-05-10T12:54:54;1.60;;;1.50;;
6007;SDS011;3032;49.484;11.112;2023-05-10T12:57:20;2.20;;;1.27;;
6007;SDS011;3032;49.484;11.112;2023-05-10T12:59:46;1.48;;;1.40;;
6007;SDS011;3032;49.484;11.112;2023-05-10T13:02:12;1.23;;;1.23;;
6007;SDS011;3032;49.484;11.112;2023-05-10T13:04:38;1.27;;;1.27;;
6007;SDS011;3032;49.484;11.112;2023-05-10T13:07:05;1.30;;;1.30;;
6007;SDS011;3032;49.484;11.112;2023-05-10T13:09:31;1.70;;;1.20;;
6007;SDS011;3032;49.484;11.112;2023-05-10T13:11:57;1.47;;;1.37;;
6007;SDS011;3032;49.484;11.112;2023-05-10T13:14:22;2.87;;;1.20;;
6007;SDS011;3032;49.484;11.112;2023-05-10T13:16:50;1.40;;;1.10;;
6007;SDS011;3032;49.484;11.112;2023-05-10T13:19:15;3.77;;;1.50;;
6007;SDS011;3032;49.484;11.112;2023-05-10T13:21:41;2.20;;;1.48;;
6007;SDS011;3032;49.484;11.112;2023-05-10T13:24:07;1.20;;;1.10;;
6007;SDS011;3032;49.484;11.112;2023-05-10T13:26:33;7.40;;;1.50;;
6007;SDS011;3032;49.484;11.112;2023-05-10T13:28:58;1.10;;;1.10;;
6007;SDS011;3032;49.484;11.112;2023-05-10T13:31:24;0.90;;;0.90;;
6007;SDS011;3032;49.484;11.112;2023-05-10T13:33:50;1.40;;;1.27;;
6007;SDS011;3032;49.484;11.112;2023-05-10T13:36:15;1.23;;;1.10;;
6007;SDS011;3032;49.484;11.112;2023-05-10T13:38:41;1.17;;;1.07;;
6007;SDS011;3032;49.484;11.112;2023-05-10T13:41:07;2.63;;;1.80;;
6007;SDS011;3032;49.484;11.112;2023-05-10T13:43:32;2.43;;;1.60;;
6007;SDS011;3032;49.484;11.112;2023-05-10T13:45:58;1.77;;;1.67;;
6007;SDS011;3032;49.484;11.112;2023-05-10T13:48:23;1.50;;;1.50;;
6007;SDS011;3032;49.484;11.112;2023-05-10T13:50:49;1.87;;;1.77;;
6007;SDS011;3032;49.484;11.112;2023-05-10T13:53:15;3.30;;;2.10;;
6007;SDS011;3032;49.484;11.112;2023-05-10T13:55:40;2.80;;;2.60;;
6007;SDS011;3032;49.484;11.112;2023-05-10T13:58:06;2.30;;;2.10;;
6007;SDS011;3032;49.484;11.112;2023-05-10T14:00:32;2.33;;;2.13;;
6007;SDS011;3032;49.484;11.112;2023-05-10T14:02:57;2.47;;;2.30;;
6007;SDS011;3032;49.484;11.112;2023-05-10T14:05:23;2.23;;;2.13;;
6007;SDS011;3032;49.484;11.112;2023-05-10T14:07:49;3.17;;;2.60;;
6007;SDS011;3032;49.484;11.112;2023-05-10T14:10:15;2.72;;;2.55;;
6007;SDS011;3032;49.484;11.112;2023-05-10T14:12:41;3.20;;;3.00;;
6007;SDS011;3032;49.484;11.112;2023-05-10T14:15:07;3.30;;;3.10;;
6007;SDS011;3032;49.484;11.112;2023-05-10T14:17:51;3.83;;;2.45;;
6007;SDS011;3032;49.484;11.112;2023-05-10T14:20:16;2.60;;;2.50;;
6007;SDS011;3032;49.484;11.112;2023-05-10T14:22:42;2.40;;;2.20;;
6007;SDS011;3032;49.484;11.112;2023-05-10T14:25:08;2.47;;;2.27;;
6007;SDS011;3032;49.484;11.112;2023-05-10T14:27:33;2.10;;;2.00;;
6007;SDS011;3032;49.484;11.112;2023-05-10T14:29:59;2.03;;;1.93;;
6007;SDS011;3032;49.484;11.112;2023-05-10T14:32:24;2.20;;;2.00;;
6007;SDS011;3032;49.484;11.112;2023-05-10T14:34:51;5.07;;;2.20;;
6007;SDS011;3032;49.484;11.112;2023-05-10T14:37:17;2.93;;;2.50;;
6007;SDS011;3032;49.484;11.112;2023-05-10T14:39:42;2.07;;;1.93;;
6007;SDS011;3032;49.484;11.112;2023-05-10T14:42:08;2.00;;;1.90;;
6007;SDS011;3032;49.484;11.112;2023-05-10T14:44:34;2.10;;;2.00;;
6007;SDS011;3032;49.484;11.112;2023-05-10T14:46:59;2.00;;;1.80;;
6007;SDS011;3032;49.484;11.112;2023-05-10T14:49:25;1.93;;;1.80;;
6007;SDS011;3032;49.484;11.112;2023-05-10T15:33:17;1.92;;;1.67;;
6007;SDS011;3032;49.484;11.112;2023-05-10T15:35:43;1.30;;;1.30;;
6007;SDS011;3032;49.484;11.112;2023-05-10T15:38:09;3.10;;;1.50;;
6007;SDS011;3032;49.484;11.112;2023-05-10T15:40:36;3.03;;;1.70;;
6007;SDS011;3032;49.484;11.112;2023-05-10T15:43:01;1.93;;;1.83;;
6007;SDS011;3032;49.484;11.112;2023-05-10T15:45:27;2.03;;;1.93;;
6007;SDS011;3032;49.484;11.112;2023-05-10T15:47:53;1.67;;;1.57;;
6007;SDS011;3032;49.484;11.112;2023-05-10T15:50:18;4.07;;;2.20;;
6007;SDS011;3032;49.484;11.112;2023-05-10T15:52:44;4.77;;;1.83;;
6007;SDS011;3032;49.484;11.112;2023-05-10T15:55:09;4.20;;;1.90;;
6007;SDS011;3032;49.484;11.112;2023-05-10T15:57:40;2.25;;;2.15;;
6007;SDS011;3032;49.484;11.112;2023-05-10T16:03:06;2.00;;;1.90;;
6007;SDS011;3032;49.484;11.112;2023-05-10T16:05:32;1.55;;;1.45;;
6007;SDS011;3032;49.484;11.112;2023-05-10T16:07:58;1.87;;;1.60;;
6007;SDS011;3032;49.484;11.112;2023-05-10T16:10:27;1.60;;;1.60;;
6007;SDS011;3032;49.484;11.112;2023-05-10T16:12:57;1.70;;;1.60;;
6007;SDS011;3032;49.484;11.112;2023-05-10T16:15:23;1.90;;;1.50;;
6007;SDS011;3032;49.484;11.112;2023-05-10T16:17:48;2.00;;;1.90;;
6007;SDS011;3032;49.484;11.112;2023-05-10T16:20:14;3.30;;;1.80;;
6007;SDS011;3032;49.484;11.112;2023-05-10T16:22:39;2.70;;;1.87;;
6007;SDS011;3032;49.484;11.112;2023-05-10T16:25:05;1.83;;;1.73;;
6007;SDS011;3032;49.484;11.112;2023-05-10T16:27:31;1.95;;;1.80;;
6007;SDS011;3032;49.484;11.112;2023-05-10T16:29:57;1.85;;;1.75;;
6007;SDS011;3032;49.484;11.112;2023-05-10T16:32:23;1.70;;;1.60;;
6007;SDS011;3032;49.484;11.112;2023-05-10T16:34:49;1.60;;;1.60;;